sensor_id;sensor_type;location;lat;lon;timestamp;P1;durP1;ratioP1;P2;durP2;ratioP2
57225;SDS011;43082;43.568;22.256;2023-06-14T00:00:36;10.82;;;3.40;;
57225;SDS011;43082;43.568;22.256;2023-06-14T00:03:06;11.70;;;3.92;;
57225;SDS011;43082;43.568;22.256;2023-06-14T00:05:33;11.43;;;3.63;;
57225;SDS011;43082;43.568;22.256;2023-06-14T00:08:03;12.82;;;4.50;;
57225;SDS011;43082;43.568;22.256;2023-06-14T00:10:33;10.50;;;3.70;;
57225;SDS011;43082;43.568;22.256;2023-06-14T00:13:00;13.20;;;5.10;;
57225;SDS011;43082;43.568;22.256;2023-06-14T00:15:26;13.73;;;7.45;;
57225;SDS011;43082;43.568;22.256;2023-06-14T00:17:53;11.40;;;4.00;;
57225;SDS011;43082;43.568;22.256;2023-06-14T00:20:19;11.63;;;3.40;;
57225;SDS011;43082;43.568;22.256;2023-06-14T00:22:45;7.53;;;2.75;;
57225;SDS011;43082;43.568;22.256;2023-06-14T00:25:11;9.93;;;3.47;;
57225;SDS011;43082;43.568;22.256;2023-06-14T00:27:36;6.97;;;3.30;;
57225;SDS011;43082;43.568;22.256;2023-06-14T00:30:02;12.18;;;3.17;;
57225;SDS011;43082;43.568;22.256;2023-06-14T00:32:28;7.57;;;3.00;;
57225;SDS011;43082;43.568;22.256;2023-06-14T00:34:53;8.90;;;2.97;;
57225;SDS011;43082;43.568;22.256;2023-06-14T00:37:19;9.85;;;2.83;;
57225;SDS011;43082;43.568;22.256;2023-06-14T00:39:44;20.17;;;3.47;;
57225;SDS011;43082;43.568;22.256;2023-06-14T00:42:09;9.80;;;2.50;;
57225;SDS011;43082;43.568;22.256;2023-06-14T00:44:35;11.35;;;3.30;;
57225;SDS011;43082;43.568;22.256;2023-06-14T00:47:00;10.80;;;3.30;;
57225;SDS011;43082;43.568;22.256;2023-06-14T00:49:26;10.90;;;3.55;;
57225;SDS011;43082;43.568;22.256;2023-06-14T00:51:52;8.65;;;3.10;;
57225;SDS011;43082;43.568;22.256;2023-06-14T00:54:18;11.00;;;3.30;;
57225;SDS011;43082;43.568;22.256;2023-06-14T00:56:43;10.00;;;3.13;;
57225;SDS011;43082;43.568;22.256;2023-06-14T00:59:10;9.25;;;2.88;;
57225;SDS011;43082;43.568;22.256;2023-06-14T01:01:36;12.10;;;3.55;;
57225;SDS011;43082;43.568;22.256;2023-06-14T01:04:02;12.05;;;3.38;;
57225;SDS011;43082;43.568;22.256;2023-06-14T01:09:20;9.63;;;3.90;;
57225;SDS011;43082;43.568;22.256;2023-06-14T01:15:00;15.70;;;6.07;;
57225;SDS011;43082;43.568;22.256;2023-06-14T01:17:26;15.13;;;4.38;;
57225;SDS011;43082;43.568;22.256;2023-06-14T01:19:52;10.88;;;3.97;;
57225;SDS011;43082;43.568;22.256;2023-06-14T01:22:23;10.85;;;4.22;;
57225;SDS011;43082;43.568;22.256;2023-06-14T01:24:51;9.55;;;3.70;;
57225;SDS011;43082;43.568;22.256;2023-06-14T01:27:20;10.38;;;3.72;;
57225;SDS011;43082;43.568;22.256;2023-06-14T01:29:50;13.13;;;5.03;;
57225;SDS011;43082;43.568;22.256;2023-06-14T01:32:17;22.40;;;5.53;;
57225;SDS011;43082;43.568;22.256;2023-06-14T01:34:43;19.23;;;5.75;;
57225;SDS011;43082;43.568;22.256;2023-06-14T01:37:09;18.95;;;5.38;;
57225;SDS011;43082;43.568;22.256;2023-06-14T01:39:35;17.25;;;5.78;;
57225;SDS011;43082;43.568;22.256;2023-06-14T01:42:01;11.05;;;4.70;;
57225;SDS011;43082;43.568;22.256;2023-06-14T01:44:27;9.57;;;4.25;;
57225;SDS011;43082;43.568;22.256;2023-06-14T01:46:52;14.82;;;5.75;;
57225;SDS011;43082;43.568;22.256;2023-06-14T01:49:18;17.40;;;5.80;;
57225;SDS011;43082;43.568;22.256;2023-06-14T01:51:45;11.27;;;4.88;;
57225;SDS011;43082;43.568;22.256;2023-06-14T01:54:11;15.32;;;4.97;;
57225;SDS011;43082;43.568;22.256;2023-06-14T01:56:36;17.80;;;5.05;;
57225;SDS011;43082;43.568;22.256;2023-06-14T01:59:01;11.95;;;5.20;;
57225;SDS011;43082;43.568;22.256;2023-06-14T02:01:27;13.43;;;5.00;;
57225;SDS011;43082;43.568;22.256;2023-06-14T02:03:53;17.38;;;4.47;;
57225;SDS011;43082;43.568;22.256;2023-06-14T02:06:18;13.45;;;4.50;;
57225;SDS011;43082;43.568;22.256;2023-06-14T02:08:44;20.45;;;5.47;;
57225;SDS011;43082;43.568;22.256;2023-06-14T02:11:09;22.23;;;5.07;;
57225;SDS011;43082;43.568;22.256;2023-06-14T02:13:35;14.13;;;4.53;;
57225;SDS011;43082;43.568;22.256;2023-06-14T02:16:00;17.20;;;4.78;;
57225;SDS011;43082;43.568;22.256;2023-06-14T02:18:26;13.38;;;5.00;;
57225;SDS011;43082;43.568;22.256;2023-06-14T02:20:52;15.13;;;4.53;;
57225;SDS011;43082;43.568;22.256;2023-06-14T02:23:17;19.92;;;4.63;;
57225;SDS011;43082;43.568;22.256;2023-06-14T02:25:43;13.35;;;4.57;;
57225;SDS011;43082;43.568;22.256;2023-06-14T02:28:10;19.85;;;4.95;;
57225;SDS011;43082;43.568;22.256;2023-06-14T02:30:35;11.48;;;4.97;;
57225;SDS011;43082;43.568;22.256;2023-06-14T02:33:01;29.00;;;5.45;;
57225;SDS011;43082;43.568;22.256;2023-06-14T02:35:27;14.48;;;5.10;;
57225;SDS011;43082;43.568;22.256;2023-06-14T02:37:52;15.73;;;5.10;;
57225;SDS011;43082;43.568;22.256;2023-06-14T02:40:19;19.50;;;4.93;;
57225;SDS011;43082;43.568;22.256;2023-06-14T02:42:45;13.18;;;4.38;;
57225;SDS011;43082;43.568;22.256;2023-06-14T02:45:10;10.43;;;4.30;;
57225;SDS011;43082;43.568;22.256;2023-06-14T02:47:36;9.85;;;4.20;;
57225;SDS011;43082;43.568;22.256;2023-06-14T02:50:01;8.98;;;4.10;;
57225;SDS011;43082;43.568;22.256;2023-06-14T02:52:27;12.48;;;3.95;;
57225;SDS011;43082;43.568;22.256;2023-06-14T02:54:53;8.57;;;4.43;;
57225;SDS011;43082;43.568;22.256;2023-06-14T02:57:19;15.57;;;4.60;;
57225;SDS011;43082;43.568;22.256;2023-06-14T02:59:45;7.38;;;3.95;;
57225;SDS011;43082;43.568;22.256;2023-06-14T03:02:11;10.55;;;3.85;;
57225;SDS011;43082;43.568;22.256;2023-06-14T03:04:36;16.73;;;4.03;;
57225;SDS011;43082;43.568;22.256;2023-06-14T03:07:05;12.38;;;4.45;;
57225;SDS011;43082;43.568;22.256;2023-06-14T03:09:37;11.65;;;4.55;;
57225;SDS011;43082;43.568;22.256;2023-06-14T03:12:03;27.85;;;4.57;;
57225;SDS011;43082;43.568;22.256;2023-06-14T03:14:32;9.25;;;3.90;;
57225;SDS011;43082;43.568;22.256;2023-06-14T03:16:57;9.32;;;3.53;;
57225;SDS011;43082;43.568;22.256;2023-06-14T03:19:24;9.13;;;4.28;;
57225;SDS011;43082;43.568;22.256;2023-06-14T03:21:50;10.52;;;4.22;;
57225;SDS011;43082;43.568;22.256;2023-06-14T03:24:15;10.45;;;4.07;;
57225;SDS011;43082;43.568;22.256;2023-06-14T03:26:41;14.32;;;4.70;;
57225;SDS011;43082;43.568;22.256;2023-06-14T03:29:07;11.32;;;4.32;;
57225;SDS011;43082;43.568;22.256;2023-06-14T03:31:33;10.27;;;4.28;;
57225;SDS011;43082;43.568;22.256;2023-06-14T03:34:00;11.63;;;4.45;;
57225;SDS011;43082;43.568;22.256;2023-06-14T03:36:28;9.07;;;3.70;;
57225;SDS011;43082;43.568;22.256;2023-06-14T03:38:54;9.10;;;3.80;;
57225;SDS011;43082;43.568;22.256;2023-06-14T03:41:20;7.88;;;3.20;;
57225;SDS011;43082;43.568;22.256;2023-06-14T03:43:45;6.50;;;3.42;;
57225;SDS011;43082;43.568;22.256;2023-06-14T03:46:11;9.52;;;3.20;;
57225;SDS011;43082;43.568;22.256;2023-06-14T03:48:36;8.68;;;3.60;;
57225;SDS011;43082;43.568;22.256;2023-06-14T03:51:03;8.10;;;3.03;;
57225;SDS011;43082;43.568;22.256;2023-06-14T03:53:29;8.82;;;3.35;;
57225;SDS011;43082;43.568;22.256;2023-06-14T03:55:55;6.75;;;3.45;;
57225;SDS011;43082;43.568;22.256;2023-06-14T03:58:22;9.82;;;3.30;;
57225;SDS011;43082;43.568;22.256;2023-06-14T04:00:47;8.23;;;3.25;;
57225;SDS011;43082;43.568;22.256;2023-06-14T04:03:13;6.45;;;2.72;;
57225;SDS011;43082;43.568;22.256;2023-06-14T04:05:40;9.48;;;3.10;;
57225;SDS011;43082;43.568;22.256;2023-06-14T04:08:09;6.00;;;2.90;;
57225;SDS011;43082;43.568;22.256;2023-06-14T04:10:35;6.13;;;3.00;;
57225;SDS011;43082;43.568;22.256;2023-06-14T04:13:01;7.65;;;3.17;;
57225;SDS011;43082;43.568;22.256;2023-06-14T04:15:26;7.05;;;3.03;;
57225;SDS011;43082;43.568;22.256;2023-06-14T04:17:53;9.88;;;3.63;;
57225;SDS011;43082;43.568;22.256;2023-06-14T04:20:22;8.23;;;3.28;;
57225;SDS011;43082;43.568;22.256;2023-06-14T04:22:49;7.25;;;3.28;;
57225;SDS011;43082;43.568;22.256;2023-06-14T04:25:15;5.57;;;3.20;;
57225;SDS011;43082;43.568;22.256;2023-06-14T04:27:40;8.27;;;3.60;;
57225;SDS011;43082;43.568;22.256;2023-06-14T04:30:06;6.68;;;3.55;;
57225;SDS011;43082;43.568;22.256;2023-06-14T04:32:32;6.68;;;3.60;;
57225;SDS011;43082;43.568;22.256;2023-06-14T04:35:05;12.13;;;3.38;;
57225;SDS011;43082;43.568;22.256;2023-06-14T04:37:32;6.47;;;3.55;;
57225;SDS011;43082;43.568;22.256;2023-06-14T04:39:58;8.48;;;4.43;;
57225;SDS011;43082;43.568;22.256;2023-06-14T04:42:23;13.90;;;4.85;;
57225;SDS011;43082;43.568;22.256;2023-06-14T04:44:55;7.93;;;3.95;;
57225;SDS011;43082;43.568;22.256;2023-06-14T04:47:21;9.82;;;4.40;;
57225;SDS011;43082;43.568;22.256;2023-06-14T04:49:47;7.90;;;4.68;;
57225;SDS011;43082;43.568;22.256;2023-06-14T04:52:12;7.18;;;3.88;;
57225;SDS011;43082;43.568;22.256;2023-06-14T04:54:38;5.55;;;2.92;;
57225;SDS011;43082;43.568;22.256;2023-06-14T04:57:07;6.80;;;3.35;;
57225;SDS011;43082;43.568;22.256;2023-06-14T04:59:33;7.13;;;3.22;;
57225;SDS011;43082;43.568;22.256;2023-06-14T05:02:00;9.23;;;3.58;;
57225;SDS011;43082;43.568;22.256;2023-06-14T05:04:26;7.57;;;3.70;;
57225;SDS011;43082;43.568;22.256;2023-06-14T05:06:53;12.55;;;4.05;;
57225;SDS011;43082;43.568;22.256;2023-06-14T05:09:19;8.57;;;3.70;;
57225;SDS011;43082;43.568;22.256;2023-06-14T05:11:46;8.15;;;4.13;;
57225;SDS011;43082;43.568;22.256;2023-06-14T05:14:12;8.93;;;5.15;;
57225;SDS011;43082;43.568;22.256;2023-06-14T05:16:38;14.52;;;10.48;;
57225;SDS011;43082;43.568;22.256;2023-06-14T05:19:04;20.25;;;12.90;;
57225;SDS011;43082;43.568;22.256;2023-06-14T05:21:30;9.38;;;5.13;;
57225;SDS011;43082;43.568;22.256;2023-06-14T05:23:57;9.73;;;4.50;;
57225;SDS011;43082;43.568;22.256;2023-06-14T05:26:22;7.80;;;3.92;;
57225;SDS011;43082;43.568;22.256;2023-06-14T05:28:55;7.60;;;3.78;;
57225;SDS011;43082;43.568;22.256;2023-06-14T05:31:25;9.10;;;4.03;;
57225;SDS011;43082;43.568;22.256;2023-06-14T05:33:51;13.32;;;4.57;;
57225;SDS011;43082;43.568;22.256;2023-06-14T05:36:17;9.57;;;4.20;;
57225;SDS011;43082;43.568;22.256;2023-06-14T05:38:43;8.38;;;4.50;;
57225;SDS011;43082;43.568;22.256;2023-06-14T05:41:08;10.63;;;6.70;;
57225;SDS011;43082;43.568;22.256;2023-06-14T05:43:34;8.32;;;5.88;;
57225;SDS011;43082;43.568;22.256;2023-06-14T05:45:59;16.17;;;6.32;;
57225;SDS011;43082;43.568;22.256;2023-06-14T05:48:24;12.80;;;7.05;;
57225;SDS011;43082;43.568;22.256;2023-06-14T05:50:50;10.70;;;4.43;;
57225;SDS011;43082;43.568;22.256;2023-06-14T05:53:15;9.50;;;4.35;;
57225;SDS011;43082;43.568;22.256;2023-06-14T05:55:41;7.45;;;4.18;;
57225;SDS011;43082;43.568;22.256;2023-06-14T05:58:06;7.85;;;4.40;;
57225;SDS011;43082;43.568;22.256;2023-06-14T06:00:32;19.30;;;12.18;;
57225;SDS011;43082;43.568;22.256;2023-06-14T06:02:58;6.72;;;3.75;;
57225;SDS011;43082;43.568;22.256;2023-06-14T06:05:24;6.70;;;3.70;;
57225;SDS011;43082;43.568;22.256;2023-06-14T06:07:49;10.35;;;4.32;;
57225;SDS011;43082;43.568;22.256;2023-06-14T06:10:15;7.05;;;3.67;;
57225;SDS011;43082;43.568;22.256;2023-06-14T06:12:41;11.25;;;3.30;;
57225;SDS011;43082;43.568;22.256;2023-06-14T06:15:07;7.10;;;3.28;;
57225;SDS011;43082;43.568;22.256;2023-06-14T06:17:37;6.35;;;2.97;;
57225;SDS011;43082;43.568;22.256;2023-06-14T06:20:03;10.70;;;3.10;;
57225;SDS011;43082;43.568;22.256;2023-06-14T06:22:30;10.05;;;3.50;;
57225;SDS011;43082;43.568;22.256;2023-06-14T06:24:56;7.28;;;3.90;;
57225;SDS011;43082;43.568;22.256;2023-06-14T06:27:21;9.30;;;3.58;;
57225;SDS011;43082;43.568;22.256;2023-06-14T06:29:46;8.73;;;4.60;;
57225;SDS011;43082;43.568;22.256;2023-06-14T06:32:13;9.43;;;4.80;;
57225;SDS011;43082;43.568;22.256;2023-06-14T06:34:39;8.93;;;3.30;;
57225;SDS011;43082;43.568;22.256;2023-06-14T06:37:05;6.15;;;3.17;;
57225;SDS011;43082;43.568;22.256;2023-06-14T06:39:31;6.63;;;3.10;;
57225;SDS011;43082;43.568;22.256;2023-06-14T06:41:56;13.50;;;5.03;;
57225;SDS011;43082;43.568;22.256;2023-06-14T06:44:22;7.35;;;3.58;;
57225;SDS011;43082;43.568;22.256;2023-06-14T06:46:47;9.35;;;3.70;;
57225;SDS011;43082;43.568;22.256;2023-06-14T06:49:13;9.25;;;4.47;;
57225;SDS011;43082;43.568;22.256;2023-06-14T06:51:42;8.02;;;4.05;;
57225;SDS011;43082;43.568;22.256;2023-06-14T06:54:08;8.65;;;4.18;;
57225;SDS011;43082;43.568;22.256;2023-06-14T06:56:34;9.20;;;5.38;;
57225;SDS011;43082;43.568;22.256;2023-06-14T06:59:00;9.07;;;5.00;;
57225;SDS011;43082;43.568;22.256;2023-06-14T07:01:26;7.90;;;3.72;;
57225;SDS011;43082;43.568;22.256;2023-06-14T07:03:54;8.82;;;4.50;;
57225;SDS011;43082;43.568;22.256;2023-06-14T07:06:20;7.25;;;2.85;;
57225;SDS011;43082;43.568;22.256;2023-06-14T07:08:45;7.50;;;2.80;;
57225;SDS011;43082;43.568;22.256;2023-06-14T07:11:13;6.57;;;3.40;;
57225;SDS011;43082;43.568;22.256;2023-06-14T07:13:39;6.72;;;3.17;;
57225;SDS011;43082;43.568;22.256;2023-06-14T07:16:04;7.00;;;3.00;;
57225;SDS011;43082;43.568;22.256;2023-06-14T07:18:30;8.85;;;3.00;;
57225;SDS011;43082;43.568;22.256;2023-06-14T07:20:56;7.93;;;2.97;;
57225;SDS011;43082;43.568;22.256;2023-06-14T07:23:22;6.72;;;2.72;;
57225;SDS011;43082;43.568;22.256;2023-06-14T07:25:47;8.07;;;2.85;;
57225;SDS011;43082;43.568;22.256;2023-06-14T07:28:13;6.10;;;2.63;;
57225;SDS011;43082;43.568;22.256;2023-06-14T07:30:38;6.05;;;2.83;;
57225;SDS011;43082;43.568;22.256;2023-06-14T07:33:05;5.40;;;2.40;;
57225;SDS011;43082;43.568;22.256;2023-06-14T07:35:30;6.15;;;2.65;;
57225;SDS011;43082;43.568;22.256;2023-06-14T07:37:56;5.43;;;2.80;;
57225;SDS011;43082;43.568;22.256;2023-06-14T07:40:21;6.22;;;2.50;;
57225;SDS011;43082;43.568;22.256;2023-06-14T07:42:47;5.72;;;2.58;;
57225;SDS011;43082;43.568;22.256;2023-06-14T07:45:13;9.15;;;4.40;;
57225;SDS011;43082;43.568;22.256;2023-06-14T07:47:39;6.78;;;3.15;;
57225;SDS011;43082;43.568;22.256;2023-06-14T07:50:05;6.13;;;3.50;;
57225;SDS011;43082;43.568;22.256;2023-06-14T07:52:30;7.28;;;3.13;;
57225;SDS011;43082;43.568;22.256;2023-06-14T07:54:56;6.00;;;3.55;;
57225;SDS011;43082;43.568;22.256;2023-06-14T07:57:22;6.03;;;2.92;;
57225;SDS011;43082;43.568;22.256;2023-06-14T07:59:47;4.97;;;2.47;;
57225;SDS011;43082;43.568;22.256;2023-06-14T08:02:13;6.07;;;2.70;;
57225;SDS011;43082;43.568;22.256;2023-06-14T08:04:38;6.25;;;2.70;;
57225;SDS011;43082;43.568;22.256;2023-06-14T08:07:04;5.70;;;2.88;;
57225;SDS011;43082;43.568;22.256;2023-06-14T08:09:29;6.15;;;3.13;;
57225;SDS011;43082;43.568;22.256;2023-06-14T08:11:55;7.68;;;3.17;;
57225;SDS011;43082;43.568;22.256;2023-06-14T08:14:21;6.93;;;3.58;;
57225;SDS011;43082;43.568;22.256;2023-06-14T08:16:47;5.95;;;2.70;;
57225;SDS011;43082;43.568;22.256;2023-06-14T08:19:12;7.15;;;2.88;;
57225;SDS011;43082;43.568;22.256;2023-06-14T08:21:38;5.35;;;2.75;;
57225;SDS011;43082;43.568;22.256;2023-06-14T08:24:03;9.20;;;2.58;;
57225;SDS011;43082;43.568;22.256;2023-06-14T08:26:29;8.27;;;2.65;;
57225;SDS011;43082;43.568;22.256;2023-06-14T08:28:55;5.55;;;2.90;;
57225;SDS011;43082;43.568;22.256;2023-06-14T08:31:21;5.47;;;2.70;;
57225;SDS011;43082;43.568;22.256;2023-06-14T08:33:47;5.45;;;2.40;;
57225;SDS011;43082;43.568;22.256;2023-06-14T08:36:12;5.90;;;2.42;;
57225;SDS011;43082;43.568;22.256;2023-06-14T08:38:39;5.15;;;2.65;;
57225;SDS011;43082;43.568;22.256;2023-06-14T08:41:04;5.47;;;2.33;;
57225;SDS011;43082;43.568;22.256;2023-06-14T08:43:31;5.07;;;2.80;;
57225;SDS011;43082;43.568;22.256;2023-06-14T08:45:58;7.28;;;2.25;;
57225;SDS011;43082;43.568;22.256;2023-06-14T08:48:26;7.53;;;2.10;;
57225;SDS011;43082;43.568;22.256;2023-06-14T08:50:51;5.95;;;2.30;;
57225;SDS011;43082;43.568;22.256;2023-06-14T08:53:26;7.65;;;2.40;;
57225;SDS011;43082;43.568;22.256;2023-06-14T08:55:53;6.32;;;2.45;;
57225;SDS011;43082;43.568;22.256;2023-06-14T08:58:20;6.55;;;2.42;;
57225;SDS011;43082;43.568;22.256;2023-06-14T09:00:49;5.32;;;2.00;;
57225;SDS011;43082;43.568;22.256;2023-06-14T09:03:17;4.47;;;2.20;;
57225;SDS011;43082;43.568;22.256;2023-06-14T09:05:45;4.90;;;2.33;;
57225;SDS011;43082;43.568;22.256;2023-06-14T09:08:11;7.15;;;2.30;;
57225;SDS011;43082;43.568;22.256;2023-06-14T09:10:36;6.45;;;2.20;;
57225;SDS011;43082;43.568;22.256;2023-06-14T09:13:02;5.60;;;2.03;;
57225;SDS011;43082;43.568;22.256;2023-06-14T09:15:29;4.93;;;2.25;;
57225;SDS011;43082;43.568;22.256;2023-06-14T09:17:55;4.25;;;2.10;;
57225;SDS011;43082;43.568;22.256;2023-06-14T09:20:21;6.35;;;2.30;;
57225;SDS011;43082;43.568;22.256;2023-06-14T09:22:46;6.20;;;2.90;;
57225;SDS011;43082;43.568;22.256;2023-06-14T09:25:12;8.80;;;3.17;;
57225;SDS011;43082;43.568;22.256;2023-06-14T09:27:40;6.55;;;2.85;;
57225;SDS011;43082;43.568;22.256;2023-06-14T09:30:08;5.30;;;2.90;;
57225;SDS011;43082;43.568;22.256;2023-06-14T09:32:37;7.97;;;2.65;;
57225;SDS011;43082;43.568;22.256;2023-06-14T09:35:05;7.25;;;2.80;;
57225;SDS011;43082;43.568;22.256;2023-06-14T09:37:31;6.95;;;2.83;;
57225;SDS011;43082;43.568;22.256;2023-06-14T09:39:57;5.63;;;2.58;;
57225;SDS011;43082;43.568;22.256;2023-06-14T09:42:23;6.25;;;2.70;;
57225;SDS011;43082;43.568;22.256;2023-06-14T09:44:53;6.55;;;3.25;;
57225;SDS011;43082;43.568;22.256;2023-06-14T09:47:19;8.43;;;2.42;;
57225;SDS011;43082;43.568;22.256;2023-06-14T09:49:46;5.88;;;2.90;;
57225;SDS011;43082;43.568;22.256;2023-06-14T09:52:17;7.22;;;2.95;;
57225;SDS011;43082;43.568;22.256;2023-06-14T09:54:44;6.28;;;2.47;;
57225;SDS011;43082;43.568;22.256;2023-06-14T09:57:14;6.90;;;2.60;;
57225;SDS011;43082;43.568;22.256;2023-06-14T09:59:42;7.65;;;3.10;;
57225;SDS011;43082;43.568;22.256;2023-06-14T10:02:20;7.95;;;3.22;;
57225;SDS011;43082;43.568;22.256;2023-06-14T10:04:50;6.70;;;2.92;;
57225;SDS011;43082;43.568;22.256;2023-06-14T10:07:23;8.18;;;2.80;;
57225;SDS011;43082;43.568;22.256;2023-06-14T10:09:51;7.13;;;2.97;;
57225;SDS011;43082;43.568;22.256;2023-06-14T10:12:18;7.03;;;2.85;;
57225;SDS011;43082;43.568;22.256;2023-06-14T10:14:49;6.80;;;2.90;;
57225;SDS011;43082;43.568;22.256;2023-06-14T10:17:31;6.97;;;2.60;;
57225;SDS011;43082;43.568;22.256;2023-06-14T10:25:29;5.88;;;2.70;;
57225;SDS011;43082;43.568;22.256;2023-06-14T10:28:02;6.75;;;2.70;;
57225;SDS011;43082;43.568;22.256;2023-06-14T10:30:29;5.88;;;2.80;;
57225;SDS011;43082;43.568;22.256;2023-06-14T10:33:07;5.15;;;2.83;;
57225;SDS011;43082;43.568;22.256;2023-06-14T10:35:33;6.05;;;2.78;;
57225;SDS011;43082;43.568;22.256;2023-06-14T10:38:08;8.07;;;3.03;;
57225;SDS011;43082;43.568;22.256;2023-06-14T10:40:35;6.28;;;3.10;;
57225;SDS011;43082;43.568;22.256;2023-06-14T10:43:01;8.30;;;3.13;;
57225;SDS011;43082;43.568;22.256;2023-06-14T10:48:43;8.25;;;3.10;;
57225;SDS011;43082;43.568;22.256;2023-06-14T10:51:15;7.07;;;3.03;;
57225;SDS011;43082;43.568;22.256;2023-06-14T10:53:45;6.75;;;2.88;;
57225;SDS011;43082;43.568;22.256;2023-06-14T10:56:33;7.05;;;3.03;;
57225;SDS011;43082;43.568;22.256;2023-06-14T10:58:57;7.00;;;3.40;;
57225;SDS011;43082;43.568;22.256;2023-06-14T11:01:36;5.75;;;3.00;;
57225;SDS011;43082;43.568;22.256;2023-06-14T11:04:11;8.68;;;3.10;;
57225;SDS011;43082;43.568;22.256;2023-06-14T11:06:49;6.25;;;2.95;;
57225;SDS011;43082;43.568;22.256;2023-06-14T11:12:03;6.53;;;3.10;;
57225;SDS011;43082;43.568;22.256;2023-06-14T11:14:32;8.95;;;3.20;;
57225;SDS011;43082;43.568;22.256;2023-06-14T11:16:57;8.02;;;3.20;;
57225;SDS011;43082;43.568;22.256;2023-06-14T11:19:23;6.85;;;3.30;;
57225;SDS011;43082;43.568;22.256;2023-06-14T11:21:49;7.18;;;2.88;;
57225;SDS011;43082;43.568;22.256;2023-06-14T11:24:16;9.30;;;3.00;;
57225;SDS011;43082;43.568;22.256;2023-06-14T11:26:42;7.90;;;3.47;;
57225;SDS011;43082;43.568;22.256;2023-06-14T11:29:07;12.52;;;3.42;;
57225;SDS011;43082;43.568;22.256;2023-06-14T11:31:32;8.52;;;3.30;;
57225;SDS011;43082;43.568;22.256;2023-06-14T11:33:59;6.60;;;3.40;;
57225;SDS011;43082;43.568;22.256;2023-06-14T11:36:31;6.57;;;3.38;;
57225;SDS011;43082;43.568;22.256;2023-06-14T11:39:02;7.03;;;3.30;;
57225;SDS011;43082;43.568;22.256;2023-06-14T11:41:38;6.35;;;3.45;;
57225;SDS011;43082;43.568;22.256;2023-06-14T11:44:06;6.07;;;2.92;;
57225;SDS011;43082;43.568;22.256;2023-06-14T11:46:32;6.18;;;3.25;;
57225;SDS011;43082;43.568;22.256;2023-06-14T11:48:58;5.90;;;3.03;;
57225;SDS011;43082;43.568;22.256;2023-06-14T11:51:24;7.22;;;3.05;;
57225;SDS011;43082;43.568;22.256;2023-06-14T11:53:50;6.45;;;2.88;;
57225;SDS011;43082;43.568;22.256;2023-06-14T11:56:15;5.88;;;3.03;;
57225;SDS011;43082;43.568;22.256;2023-06-14T11:58:42;7.18;;;2.83;;
57225;SDS011;43082;43.568;22.256;2023-06-14T12:01:08;10.80;;;2.80;;
57225;SDS011;43082;43.568;22.256;2023-06-14T12:03:34;5.78;;;2.65;;
57225;SDS011;43082;43.568;22.256;2023-06-14T12:06:04;8.13;;;3.22;;
57225;SDS011;43082;43.568;22.256;2023-06-14T12:08:32;6.05;;;3.03;;
57225;SDS011;43082;43.568;22.256;2023-06-14T12:11:04;9.18;;;2.78;;
57225;SDS011;43082;43.568;22.256;2023-06-14T12:13:40;8.73;;;3.03;;
57225;SDS011;43082;43.568;22.256;2023-06-14T12:16:09;6.00;;;2.90;;
57225;SDS011;43082;43.568;22.256;2023-06-14T12:18:36;7.03;;;2.50;;
57225;SDS011;43082;43.568;22.256;2023-06-14T12:21:04;5.03;;;2.47;;
57225;SDS011;43082;43.568;22.256;2023-06-14T12:24:05;7.88;;;3.40;;
57225;SDS011;43082;43.568;22.256;2023-06-14T12:26:24;6.15;;;2.92;;
57225;SDS011;43082;43.568;22.256;2023-06-14T12:28:51;9.10;;;3.20;;
57225;SDS011;43082;43.568;22.256;2023-06-14T12:31:17;7.72;;;3.20;;
57225;SDS011;43082;43.568;22.256;2023-06-14T12:33:43;15.57;;;7.15;;
57225;SDS011;43082;43.568;22.256;2023-06-14T12:36:11;7.22;;;3.17;;
57225;SDS011;43082;43.568;22.256;2023-06-14T12:38:36;8.82;;;4.18;;
57225;SDS011;43082;43.568;22.256;2023-06-14T12:41:02;7.97;;;4.40;;
57225;SDS011;43082;43.568;22.256;2023-06-14T12:43:28;7.63;;;2.95;;
57225;SDS011;43082;43.568;22.256;2023-06-14T12:45:54;8.13;;;2.80;;
57225;SDS011;43082;43.568;22.256;2023-06-14T12:48:20;6.80;;;2.63;;
57225;SDS011;43082;43.568;22.256;2023-06-14T12:50:46;5.82;;;3.13;;
57225;SDS011;43082;43.568;22.256;2023-06-14T12:53:11;5.90;;;3.38;;
57225;SDS011;43082;43.568;22.256;2023-06-14T12:55:37;10.05;;;3.10;;
57225;SDS011;43082;43.568;22.256;2023-06-14T12:58:02;5.13;;;2.50;;
57225;SDS011;43082;43.568;22.256;2023-06-14T13:00:28;5.75;;;2.78;;
57225;SDS011;43082;43.568;22.256;2023-06-14T13:02:55;6.03;;;2.70;;
57225;SDS011;43082;43.568;22.256;2023-06-14T13:05:21;13.20;;;2.85;;
57225;SDS011;43082;43.568;22.256;2023-06-14T13:07:47;5.50;;;2.75;;
57225;SDS011;43082;43.568;22.256;2023-06-14T13:10:12;5.35;;;2.67;;
57225;SDS011;43082;43.568;22.256;2023-06-14T13:12:38;7.03;;;3.00;;
57225;SDS011;43082;43.568;22.256;2023-06-14T13:15:05;7.43;;;2.88;;
57225;SDS011;43082;43.568;22.256;2023-06-14T13:17:31;7.70;;;2.95;;
57225;SDS011;43082;43.568;22.256;2023-06-14T13:19:58;6.13;;;2.97;;
57225;SDS011;43082;43.568;22.256;2023-06-14T13:22:24;7.30;;;2.60;;
57225;SDS011;43082;43.568;22.256;2023-06-14T13:24:50;7.32;;;2.85;;
57225;SDS011;43082;43.568;22.256;2023-06-14T13:27:15;6.22;;;3.13;;
57225;SDS011;43082;43.568;22.256;2023-06-14T13:29:41;7.38;;;2.80;;
57225;SDS011;43082;43.568;22.256;2023-06-14T13:32:06;7.25;;;2.80;;
57225;SDS011;43082;43.568;22.256;2023-06-14T13:34:32;5.85;;;3.25;;
57225;SDS011;43082;43.568;22.256;2023-06-14T13:36:57;9.88;;;3.10;;
57225;SDS011;43082;43.568;22.256;2023-06-14T13:39:24;6.22;;;2.60;;
57225;SDS011;43082;43.568;22.256;2023-06-14T13:41:50;6.95;;;3.03;;
57225;SDS011;43082;43.568;22.256;2023-06-14T13:44:16;5.80;;;2.70;;
57225;SDS011;43082;43.568;22.256;2023-06-14T13:46:44;7.38;;;2.90;;
57225;SDS011;43082;43.568;22.256;2023-06-14T13:49:09;7.72;;;3.20;;
57225;SDS011;43082;43.568;22.256;2023-06-14T13:51:35;10.10;;;3.38;;
57225;SDS011;43082;43.568;22.256;2023-06-14T13:54:01;5.75;;;3.10;;
57225;SDS011;43082;43.568;22.256;2023-06-14T13:56:26;8.50;;;3.47;;
57225;SDS011;43082;43.568;22.256;2023-06-14T13:58:52;5.30;;;2.90;;
57225;SDS011;43082;43.568;22.256;2023-06-14T14:01:17;9.43;;;3.70;;
57225;SDS011;43082;43.568;22.256;2023-06-14T14:03:44;6.38;;;2.90;;
57225;SDS011;43082;43.568;22.256;2023-06-14T14:06:11;6.03;;;3.38;;
57225;SDS011;43082;43.568;22.256;2023-06-14T14:08:37;9.45;;;2.97;;
57225;SDS011;43082;43.568;22.256;2023-06-14T14:11:02;6.35;;;3.13;;
57225;SDS011;43082;43.568;22.256;2023-06-14T14:13:28;6.75;;;2.95;;
57225;SDS011;43082;43.568;22.256;2023-06-14T14:15:54;8.23;;;3.60;;
57225;SDS011;43082;43.568;22.256;2023-06-14T14:18:19;8.18;;;3.22;;
57225;SDS011;43082;43.568;22.256;2023-06-14T14:20:48;9.13;;;3.22;;
57225;SDS011;43082;43.568;22.256;2023-06-14T14:23:13;6.00;;;3.03;;
57225;SDS011;43082;43.568;22.256;2023-06-14T14:25:39;5.60;;;2.90;;
57225;SDS011;43082;43.568;22.256;2023-06-14T14:28:05;7.95;;;3.00;;
57225;SDS011;43082;43.568;22.256;2023-06-14T14:30:30;6.05;;;2.80;;
57225;SDS011;43082;43.568;22.256;2023-06-14T14:32:56;6.65;;;2.80;;
57225;SDS011;43082;43.568;22.256;2023-06-14T14:35:21;5.55;;;2.90;;
57225;SDS011;43082;43.568;22.256;2023-06-14T14:37:49;8.25;;;2.70;;
57225;SDS011;43082;43.568;22.256;2023-06-14T14:40:14;6.97;;;2.80;;
57225;SDS011;43082;43.568;22.256;2023-06-14T14:42:40;7.80;;;3.30;;
57225;SDS011;43082;43.568;22.256;2023-06-14T14:45:05;6.93;;;3.20;;